createdAt,value
2023-05-06T00:00:06.010Z,7.73
2023-05-06T00:02:57.312Z,7.80
2023-05-06T00:05:48.778Z,7.83
2023-05-06T00:08:39.076Z,8.00
2023-05-06T00:11:30.137Z,6.60
2023-05-06T00:14:20.656Z,7.53
2023-05-06T00:17:13.807Z,7.50
2023-05-06T00:20:09.880Z,7.63
2023-05-06T00:23:00.960Z,8.43
2023-05-06T00:25:49.922Z,8.83
2023-05-06T00:28:40.255Z,9.50
2023-05-06T00:31:29.608Z,8.80
2023-05-06T00:34:21.708Z,9.60
2023-05-06T00:37:12.361Z,8.80
2023-05-06T00:40:04.672Z,9.27
2023-05-06T00:42:53.633Z,8.30
2023-05-06T00:45:43.513Z,8.60
2023-05-06T00:48:33.957Z,9.33
2023-05-06T00:51:26.080Z,8.90
2023-05-06T00:54:15.373Z,8.90
2023-05-06T00:57:04.726Z,9.90
2023-05-06T00:59:54.282Z,9.73
2023-05-06T01:02:47.572Z,9.33
2023-05-06T01:05:47.728Z,9.90
2023-05-06T01:08:45.908Z,8.60
2023-05-06T01:11:42.542Z,8.70
2023-05-06T01:14:37.759Z,9.00
2023-05-06T01:17:33.261Z,9.70
2023-05-06T01:20:41.136Z,8.83
2023-05-06T01:24:38.779Z,8.40
2023-05-06T01:32:02.040Z,9.27
2023-05-06T01:35:06.085Z,9.43
2023-05-06T01:38:25.325Z,9.83
2023-05-06T01:42:07.691Z,9.53
2023-05-06T01:45:05.000Z,10.23
2023-05-06T01:48:13.477Z,10.53
2023-05-06T01:51:49.114Z,9.20
2023-05-06T01:54:42.856Z,9.30
2023-05-06T01:58:07.730Z,9.33
2023-05-06T02:15:44.035Z,9.80
2023-05-06T02:58:44.898Z,11.33
2023-05-06T03:01:43.300Z,10.00
2023-05-06T03:04:42.128Z,10.87
2023-05-06T03:07:37.855Z,12.50
2023-05-06T03:10:38.190Z,10.03
2023-05-06T03:13:36.789Z,10.80
2023-05-06T03:16:43.902Z,11.37
2023-05-06T03:19:35.748Z,10.43
2023-05-06T03:22:44.513Z,11.00
2023-05-06T03:25:37.285Z,10.83
2023-05-06T03:28:31.611Z,10.67
2023-05-06T03:31:25.088Z,10.23
2023-05-06T03:34:22.403Z,11.50
2023-05-06T03:37:14.660Z,10.87
2023-05-06T03:40:08.400Z,9.87
2023-05-06T03:43:16.819Z,10.90
2023-05-06T03:46:17.407Z,10.30
2023-05-06T03:49:06.836Z,11.23
2023-05-06T03:51:58.095Z,10.10
2023-05-06T03:54:54.331Z,10.80
2023-05-06T03:58:00.639Z,10.90
2023-05-06T04:01:01.370Z,10.30
2023-05-06T04:03:56.461Z,11.93
2023-05-06T04:06:51.682Z,11.00
2023-05-06T04:09:54.040Z,9.73
2023-05-06T04:12:49.115Z,11.30
2023-05-06T11:24:44.460Z,7.20
2023-05-06T11:27:50.800Z,6.83
2023-05-06T11:30:50.850Z,6.13
2023-05-06T11:33:53.280Z,6.50
2023-05-06T11:37:24.059Z,7.50
2023-05-06T11:40:27.035Z,6.23
2023-05-06T11:43:29.886Z,5.83
2023-05-06T11:46:25.739Z,4.90
2023-05-06T11:49:20.600Z,5.70
2023-05-06T11:52:31.339Z,5.30
2023-05-06T11:58:31.030Z,6.20
2023-05-06T12:01:29.618Z,6.23
2023-05-06T12:04:21.258Z,5.37
2023-05-06T12:07:12.108Z,5.33
2023-05-06T12:10:08.599Z,5.50
2023-05-06T12:12:59.696Z,5.27
2023-05-06T12:15:53.904Z,5.23
2023-05-06T12:18:43.254Z,5.60
2023-05-06T12:21:46.974Z,5.80
2023-05-06T12:24:43.178Z,5.00
2023-05-06T12:27:36.754Z,4.73
2023-05-06T12:30:35.676Z,5.10
2023-05-06T12:33:25.612Z,5.87
2023-05-06T12:36:16.865Z,5.27
2023-05-06T12:39:07.351Z,5.20
2023-05-06T12:42:01.422Z,5.23
2023-05-06T12:44:51.073Z,4.83
2023-05-06T12:47:41.729Z,4.47
2023-05-06T12:50:38.519Z,4.83
2023-05-06T12:53:37.154Z,5.50
2023-05-06T12:56:26.905Z,4.53
2023-05-06T12:59:16.660Z,4.67
2023-05-06T13:02:07.603Z,5.10
2023-05-06T13:04:58.326Z,4.67
2023-05-06T13:07:47.965Z,4.43
2023-05-06T13:10:40.596Z,4.33
2023-05-06T13:13:30.057Z,4.90
2023-05-06T13:16:19.745Z,5.10
2023-05-06T13:19:21.252Z,5.30
2023-05-06T13:22:22.128Z,4.33
2023-05-06T13:25:12.966Z,4.50
2023-05-06T13:28:02.075Z,4.77
2023-05-06T13:30:51.736Z,4.60
2023-05-06T13:33:41.256Z,5.07
2023-05-06T13:36:37.131Z,4.73
2023-05-06T13:39:32.198Z,4.70
2023-05-06T13:42:22.531Z,12.07
2023-05-06T13:45:11.966Z,4.33
2023-05-06T13:48:02.498Z,4.30
2023-05-06T13:50:51.830Z,3.92
2023-05-06T13:53:41.277Z,3.63
2023-05-06T13:56:32.645Z,4.33
2023-05-06T13:59:21.379Z,4.27
2023-05-06T14:02:10.844Z,3.97
2023-05-06T14:05:00.016Z,4.00
2023-05-06T14:07:48.940Z,4.10
2023-05-06T14:10:43.554Z,4.17
2023-05-06T14:13:35.875Z,4.30
2023-05-06T14:16:26.728Z,3.93
2023-05-06T14:19:17.166Z,4.03
2023-05-06T14:22:12.051Z,7.37
2023-05-06T14:25:02.175Z,4.50
2023-05-06T14:27:52.360Z,5.43
2023-05-06T14:30:43.304Z,4.50
2023-05-06T14:33:34.130Z,5.80
2023-05-06T14:36:25.742Z,4.10
2023-05-06T14:39:16.669Z,4.17
2023-05-06T14:42:06.441Z,3.77
2023-05-06T14:44:55.278Z,10.10
2023-05-06T14:47:49.190Z,3.07
2023-05-06T14:50:38.671Z,4.83
2023-05-06T14:53:28.620Z,3.60
2023-05-06T14:56:20.096Z,4.50
2023-05-06T14:59:09.240Z,4.27
2023-05-06T15:01:58.960Z,3.50
2023-05-06T15:04:50.005Z,3.73
2023-05-06T15:07:42.322Z,3.23
2023-05-06T15:10:30.833Z,3.03
2023-05-06T15:13:20.798Z,3.03
2023-05-06T15:16:15.654Z,3.30
2023-05-06T15:19:04.610Z,4.17
2023-05-06T15:21:54.922Z,4.80
2023-05-06T15:24:44.353Z,3.67
2023-05-06T15:27:37.004Z,3.73
2023-05-06T15:30:27.302Z,3.33
2023-05-06T15:38:19.231Z,3.63
2023-05-06T15:44:51.636Z,3.47
2023-05-06T15:47:41.835Z,3.67
2023-05-06T15:50:33.721Z,3.07
2023-05-06T15:53:23.866Z,4.23
2023-05-06T15:56:18.513Z,3.97
2023-05-06T15:59:08.376Z,4.30
2023-05-06T16:02:24.633Z,3.73
2023-05-06T16:05:10.015Z,4.63
2023-05-06T16:07:58.597Z,5.30
2023-05-06T16:10:47.313Z,5.63
2023-05-06T16:13:36.123Z,9.00
2023-05-06T16:16:25.739Z,12.40
2023-05-06T16:19:16.099Z,75.33
2023-05-06T16:22:06.327Z,15.20
2023-05-06T16:24:54.902Z,6.90
2023-05-06T16:27:44.526Z,6.67
2023-05-06T16:30:33.231Z,5.53
2023-05-06T16:33:22.358Z,8.83
2023-05-06T16:36:13.075Z,7.40
2023-05-06T16:39:04.032Z,5.63
2023-05-06T16:41:52.527Z,5.90
2023-05-06T16:44:41.371Z,5.70
2023-05-06T16:47:30.163Z,5.20
2023-05-06T16:50:18.984Z,5.30
2023-05-06T16:53:09.323Z,7.93
2023-05-06T16:55:57.893Z,7.30
2023-05-06T16:58:46.810Z,6.40
2023-05-06T17:01:36.887Z,5.30
2023-05-06T17:04:26.075Z,4.97
2023-05-06T17:07:14.579Z,5.60
2023-05-06T17:10:04.901Z,5.63
2023-05-06T17:12:53.541Z,5.70
2023-05-06T17:15:42.216Z,5.87
2023-05-06T17:18:30.870Z,5.93
2023-05-06T17:21:20.794Z,5.70
2023-05-06T17:24:09.771Z,6.93
2023-05-06T17:26:59.680Z,6.60
2023-05-06T17:29:48.328Z,6.40
2023-05-06T17:32:37.068Z,7.33
2023-05-06T17:35:26.314Z,6.30
2023-05-06T17:38:16.922Z,7.07
2023-05-06T17:41:06.023Z,7.80
2023-05-06T17:43:56.238Z,7.20
2023-05-06T17:46:45.744Z,7.60
2023-05-06T17:49:34.541Z,6.90
2023-05-06T17:52:25.350Z,7.73
2023-05-06T17:55:17.425Z,6.93
2023-05-06T17:58:06.861Z,7.57
2023-05-06T18:00:57.581Z,7.50
2023-05-06T18:03:46.277Z,8.77
2023-05-06T18:06:35.105Z,7.47
2023-05-06T18:09:23.926Z,7.80
2023-05-06T18:12:13.017Z,6.87
2023-05-06T18:15:01.662Z,7.20
2023-05-06T18:17:51.662Z,6.77
2023-05-06T18:20:40.828Z,7.20
2023-05-06T18:23:29.754Z,7.50
2023-05-06T18:26:31.055Z,8.07
2023-05-06T18:29:27.834Z,8.13
2023-05-06T18:32:18.666Z,9.20
2023-05-06T18:35:10.980Z,8.53
2023-05-06T18:38:01.045Z,9.33
2023-05-06T18:40:49.852Z,9.70
2023-05-06T18:43:38.576Z,10.80
2023-05-06T18:46:28.627Z,10.47
2023-05-06T18:49:17.547Z,9.73
2023-05-06T18:52:07.849Z,9.60
2023-05-06T18:54:56.510Z,11.13
2023-05-06T18:57:45.080Z,11.83
2023-05-06T19:00:33.721Z,11.40
2023-05-06T19:03:22.497Z,12.00
2023-05-06T19:06:12.626Z,12.60
2023-05-06T19:09:05.004Z,10.97
2023-05-06T19:11:53.728Z,12.50
2023-05-06T19:14:42.514Z,12.90
2023-05-06T19:17:31.277Z,12.83
2023-05-06T19:20:19.914Z,11.70
2023-05-06T19:23:09.204Z,14.13
2023-05-06T19:25:59.099Z,13.10
2023-05-06T19:28:47.692Z,12.97
2023-05-06T19:31:36.721Z,13.17
2023-05-06T19:34:25.922Z,13.53
2023-05-06T19:37:14.339Z,14.73
2023-05-06T19:40:03.152Z,14.70
2023-05-06T19:42:53.881Z,15.37
2023-05-06T19:45:42.401Z,14.60
2023-05-06T19:48:30.887Z,15.13
2023-05-06T19:51:33.482Z,15.20
2023-05-06T19:54:23.170Z,15.47
2023-05-06T19:57:26.231Z,14.80
2023-05-06T20:00:19.650Z,16.17
2023-05-06T20:03:09.799Z,19.10
2023-05-06T20:05:58.928Z,17.80
2023-05-06T20:08:47.719Z,16.83
2023-05-06T20:11:36.594Z,17.80
2023-05-06T20:14:26.824Z,17.00
2023-05-06T20:17:17.317Z,17.23
2023-05-06T20:20:11.594Z,18.77
2023-05-06T20:23:02.728Z,21.47
2023-05-06T20:25:52.212Z,18.90
2023-05-06T20:28:43.687Z,18.67
2023-05-06T20:31:39.787Z,19.53
2023-05-06T20:34:32.972Z,18.50
2023-05-06T20:37:31.562Z,18.07
2023-05-06T20:40:34.486Z,18.93
2023-05-06T20:43:24.121Z,19.47
2023-05-06T20:46:21.919Z,66.37
2023-05-06T20:49:14.583Z,19.73
2023-05-06T20:52:11.280Z,18.80
2023-05-06T20:55:07.446Z,18.70
2023-05-06T20:57:58.329Z,19.90
2023-05-06T21:00:50.633Z,21.00
2023-05-06T21:03:48.748Z,19.37
2023-05-06T21:06:47.837Z,20.50
2023-05-06T21:09:41.192Z,20.60
2023-05-06T21:12:33.327Z,20.60
2023-05-06T21:15:23.651Z,20.40
2023-05-06T21:18:12.712Z,20.07
2023-05-06T21:21:02.515Z,21.17
2023-05-06T21:23:54.256Z,23.90
2023-05-06T21:26:45.306Z,20.40
2023-05-06T21:29:33.921Z,22.60
2023-05-06T21:32:23.045Z,20.97
2023-05-06T21:35:11.879Z,22.83
2023-05-06T21:38:00.660Z,23.27
2023-05-06T21:40:49.400Z,23.27
2023-05-06T21:43:39.724Z,23.33
2023-05-06T21:46:28.492Z,24.23
2023-05-06T21:49:19.893Z,25.30
2023-05-06T21:52:08.360Z,23.87
2023-05-06T21:54:56.824Z,24.50
2023-05-06T21:57:46.338Z,22.13
2023-05-06T22:00:36.510Z,21.07
2023-05-06T22:03:25.802Z,20.27
2023-05-06T22:06:14.826Z,22.93
2023-05-06T22:09:04.611Z,22.00
2023-05-06T22:11:53.270Z,21.03
2023-05-06T22:14:41.985Z,19.83
2023-05-06T22:17:32.872Z,20.30
2023-05-06T22:20:21.585Z,21.27
2023-05-06T22:23:10.561Z,20.87
2023-05-06T22:26:00.317Z,21.47
2023-05-06T22:28:49.633Z,20.60
2023-05-06T22:31:38.098Z,21.60
2023-05-06T22:34:28.237Z,22.37
2023-05-06T22:37:17.498Z,20.10
2023-05-06T22:40:07.375Z,20.00
2023-05-06T22:42:55.954Z,21.10
2023-05-06T22:45:44.902Z,19.57
2023-05-06T22:48:33.411Z,19.97
2023-05-06T22:51:23.386Z,18.30
2023-05-06T22:54:12.193Z,20.53
2023-05-06T22:57:01.055Z,18.70
2023-05-06T22:59:49.933Z,19.03
2023-05-06T23:02:38.615Z,18.73
2023-05-06T23:05:27.783Z,17.73
2023-05-06T23:08:18.204Z,18.60
2023-05-06T23:11:07.182Z,20.30
2023-05-06T23:13:55.858Z,18.70
2023-05-06T23:16:45.106Z,18.20
2023-05-06T23:19:33.609Z,19.27
2023-05-06T23:22:22.117Z,18.20
2023-05-06T23:25:13.389Z,19.33
2023-05-06T23:28:02.249Z,18.77
2023-05-06T23:30:50.813Z,19.70
2023-05-06T23:33:39.767Z,19.00
2023-05-06T23:36:28.482Z,18.10
2023-05-06T23:39:17.658Z,17.17
2023-05-06T23:42:07.773Z,17.60
2023-05-06T23:44:56.888Z,17.93
2023-05-06T23:47:45.572Z,17.63
2023-05-06T23:50:34.816Z,18.20
2023-05-06T23:53:23.357Z,18.33
2023-05-06T23:56:12.212Z,16.20
2023-05-06T23:59:02.080Z,17.63
